KCQX

Chatham Municipal Airport

Chatham, Massachusetts, USA
METAR KCQX 141308Z AUTO 00000KT 3SM BR OVC002 24/22 A2994 RMK AO2 T02390222
Observed Flight Rules
Aug-14 @ 13:08 UTC (36 minutes ago) Instrument Flight Rules
Visibility Clouds Conditions
3 miles
  • Overcast at 200' AGL
  • Mist
Temperatures Readings
Current 24°C / 75°F
Dewpoint 22°C / 72°F
Humidity 89%
Altimeter 29.94" Hg
Pressure 1014 hPa
Elevation 19
METAR KCQX 141308Z AUTO 00000KT 3SM BR OVC002 24/22 A2994 RMK AO2 T02390222
Observed Flight Rules
Aug-14 @ 13:08 UTC
(36 minutes ago)
LIFR
Clouds
  • Overcast at 200' AGL
Conditions
  • Mist
Temperature Dewpoint
24°C / 75°F 22°C / 72°F
Humidity Altimeter Pressure
89% 29.94" Hg 1014 hPa